Time;durP1;ratioP1;P1;durP2;ratioP2;P2;SDS_P1;SDS_P2;PMS_P1;PMS_P2;Temp;Humidity;BMP_temperature;BMP_pressure;BME280_temperature;BME280_humidity;BME280_pressure;Samples;Min_cycle;Max_cycle;Signal;HPM_P1;HPM_P2
2023/04/14 00:00:57;;;;;;;2.05;1.80;;;5.80;99.90;;;;;;5000019;28;20728;-73
2023/04/14 00:03:23;;;;;;;4.10;0.90;;;5.80;99.90;;;;;;5007162;28;20050;-78
2023/04/14 00:05:48;;;;;;;2.00;1.05;;;5.80;99.90;;;;;;5006345;28;20084;-77
2023/04/14 00:08:14;;;;;;;1.70;1.08;;;5.80;99.90;;;;;;5007411;28;20587;-78
2023/04/14 00:10:40;;;;;;;0.80;0.77;;;5.80;99.90;;;;;;5007272;28;20049;-78
2023/04/14 00:13:05;;;;;;;1.55;1.45;;;5.70;99.90;;;;;;5007752;28;20053;-78
2023/04/14 00:15:31;;;;;;;4.78;1.88;;;5.70;99.90;;;;;;5007287;28;20053;-74
2023/04/14 00:17:56;;;;;;;3.65;2.25;;;5.70;99.90;;;;;;5007444;28;20042;-78
2023/04/14 00:20:22;;;;;;;2.38;1.38;;;5.70;99.90;;;;;;5006031;28;20046;-79
2023/04/14 00:22:48;;;;;;;1.38;1.33;;;5.70;99.90;;;;;;5005713;28;20057;-75
2023/04/14 00:25:13;;;;;;;2.17;0.77;;;5.60;99.90;;;;;;5007294;28;20056;-78
2023/04/14 00:27:39;;;;;;;4.57;2.78;;;5.70;99.90;;;;;;5006140;28;20053;-79
2023/04/14 00:30:05;;;;;;;2.63;1.35;;;5.70;99.90;;;;;;5007420;28;20046;-75
2023/04/14 00:32:31;;;;;;;1.13;1.08;;;5.60;99.90;;;;;;5006609;28;20153;-79
2023/04/14 00:34:58;;;;;;;1.75;1.35;;;5.60;99.90;;;;;;5006448;28;20536;-78
2023/04/14 00:37:24;;;;;;;3.63;2.33;;;5.70;99.90;;;;;;5007587;28;20052;-75
2023/04/14 00:39:50;;;;;;;1.58;1.42;;;5.60;99.90;;;;;;5006301;28;20125;-76
2023/04/14 00:42:15;;;;;;;3.50;1.00;;;5.70;99.90;;;;;;5007080;28;20038;-76
2023/04/14 00:44:41;;;;;;;2.50;2.03;;;5.70;99.90;;;;;;5005542;28;20120;-74
2023/04/14 00:47:07;;;;;;;1.50;1.38;;;5.60;99.90;;;;;;5005596;28;20507;-76
2023/04/14 00:49:32;;;;;;;6.68;2.55;;;5.60;99.90;;;;;;5005443;28;20523;-78
2023/04/14 00:51:58;;;;;;;1.25;1.05;;;5.60;99.90;;;;;;5006899;28;20096;-78
2023/04/14 00:54:24;;;;;;;5.15;2.00;;;5.60;99.90;;;;;;4989874;28;20042;-78
2023/04/14 00:56:52;;;;;;;1.98;1.38;;;5.50;99.90;;;;;;5006030;28;20459;-78
2023/04/14 00:59:18;;;;;;;2.65;1.27;;;5.50;99.90;;;;;;5004855;28;20635;-76
2023/04/14 01:01:44;;;;;;;1.50;1.27;;;5.50;99.90;;;;;;5005396;28;20129;-77
2023/04/14 01:04:10;;;;;;;1.80;1.15;;;5.50;99.90;;;;;;5005712;28;20038;-78
2023/04/14 01:06:35;;;;;;;6.22;2.85;;;5.40;99.90;;;;;;5006543;28;20145;-77
2023/04/14 01:09:02;;;;;;;1.63;0.82;;;5.40;99.90;;;;;;5005771;28;20038;-77
2023/04/14 01:11:58;;;;;;;3.20;1.52;;;5.40;99.90;;;;;;4988544;28;20065;-78
2023/04/14 01:14:31;;;;;;;0.77;0.77;;;5.40;99.90;;;;;;5005278;28;20072;-78
2023/04/14 01:17:06;;;;;;;3.10;1.60;;;5.40;99.90;;;;;;5006502;28;20516;-77
2023/04/14 01:20:06;;;;;;;3.00;1.75;;;5.40;99.90;;;;;;5005054;28;20157;-78
2023/04/14 01:22:35;;;;;;;3.28;1.85;;;5.40;99.90;;;;;;4988341;28;20057;-78
2023/04/14 01:25:30;;;;;;;5.55;1.65;;;5.40;99.90;;;;;;5004960;28;20072;-78
2023/04/14 01:28:27;;;;;;;1.25;1.13;;;5.40;99.90;;;;;;5005142;28;20124;-78
2023/04/14 01:30:58;;;;;;;1.30;1.30;;;5.40;99.90;;;;;;5006854;28;20103;-78
2023/04/14 01:33:25;;;;;;;1.30;1.20;;;5.40;99.90;;;;;;5005100;28;20484;-75
2023/04/14 01:36:00;;;;;;;1.23;1.13;;;5.40;99.90;;;;;;4989104;28;20042;-75
2023/04/14 01:38:31;;;;;;;6.60;3.30;;;5.40;99.90;;;;;;5020722;28;20092;-78
2023/04/14 01:41:03;;;;;;;2.70;1.73;;;5.40;99.90;;;;;;5005712;28;20088;-77
2023/04/14 01:43:31;;;;;;;0.98;0.93;;;5.30;99.90;;;;;;5004499;28;20473;-79
2023/04/14 01:46:03;;;;;;;1.38;0.63;;;5.40;99.90;;;;;;5004695;28;20076;-79
2023/04/14 01:48:31;;;;;;;4.80;2.00;;;5.40;99.90;;;;;;5004375;28;20301;-77
2023/04/14 01:50:58;;;;;;;1.67;1.50;;;5.40;99.90;;;;;;5004739;28;20540;-75
2023/04/14 01:53:26;;;;;;;0.55;0.55;;;5.40;99.90;;;;;;5004956;28;20405;-77
2023/04/14 01:55:53;;;;;;;17.70;1.40;;;5.30;99.90;;;;;;5005932;28;20175;-78
2023/04/14 01:58:20;;;;;;;3.33;2.17;;;5.40;99.90;;;;;;5004354;28;20148;-78
2023/04/14 02:00:48;;;;;;;3.15;1.27;;;5.30;99.90;;;;;;5005490;28;20053;-78
2023/04/14 02:03:17;;;;;;;1.80;1.70;;;5.30;99.90;;;;;;5004337;28;20041;-76
2023/04/14 02:05:43;;;;;;;3.25;2.83;;;5.30;99.90;;;;;;5005150;28;20165;-75
2023/04/14 02:08:13;;;;;;;2.47;1.77;;;5.20;99.90;;;;;;5005453;28;20046;-77
2023/04/14 02:10:42;;;;;;;4.70;2.35;;;5.20;99.90;;;;;;5004786;28;20097;-78
2023/04/14 02:13:10;;;;;;;2.45;1.85;;;5.20;99.90;;;;;;5020488;28;20060;-78
2023/04/14 02:15:36;;;;;;;2.20;1.90;;;5.20;99.90;;;;;;5004704;28;20415;-74
2023/04/14 02:18:04;;;;;;;2.40;1.77;;;5.20;99.90;;;;;;5003059;28;20550;-76
2023/04/14 02:20:31;;;;;;;3.65;2.17;;;5.20;99.90;;;;;;5005000;28;20564;-75
2023/04/14 02:22:57;;;;;;;1.92;1.60;;;5.20;99.90;;;;;;5004273;28;20121;-77
2023/04/14 02:25:28;;;;;;;2.13;2.03;;;5.20;99.90;;;;;;5006002;28;20404;-77
2023/04/14 02:27:57;;;;;;;2.47;1.48;;;5.30;99.90;;;;;;5004438;28;20044;-74
2023/04/14 02:30:32;;;;;;;1.67;1.27;;;5.30;99.90;;;;;;5004200;28;20046;-77
2023/04/14 02:33:06;;;;;;;1.13;0.80;;;5.30;99.90;;;;;;5004293;28;20121;-77
2023/04/14 02:35:38;;;;;;;2.78;1.95;;;5.30;99.90;;;;;;5003943;28;20077;-74
2023/04/14 02:38:22;;;;;;;0.73;0.52;;;5.30;99.90;;;;;;4987644;28;20073;-77
2023/04/14 02:40:48;;;;;;;1.65;1.55;;;5.30;99.90;;;;;;5003709;28;20042;-73
2023/04/14 02:43:31;;;;;;;2.40;1.65;;;5.30;99.90;;;;;;5003651;28;20065;-77
2023/04/14 02:45:59;;;;;;;7.78;2.53;;;5.30;99.90;;;;;;5003475;28;20169;-78
2023/04/14 02:48:28;;;;;;;2.17;2.05;;;5.20;99.90;;;;;;5002585;28;20045;-76
2023/04/14 02:50:54;;;;;;;2.13;1.45;;;5.20;99.90;;;;;;5004762;28;20042;-75
2023/04/14 02:53:23;;;;;;;2.20;1.88;;;5.20;99.90;;;;;;5005034;28;20041;-77
2023/04/14 02:55:50;;;;;;;1.92;1.60;;;5.20;99.90;;;;;;5003582;28;20069;-78
2023/04/14 02:58:16;;;;;;;1.65;1.55;;;5.20;99.90;;;;;;5004408;28;20042;-78
2023/04/14 03:00:45;;;;;;;2.47;1.52;;;5.20;99.90;;;;;;5004243;28;20042;-78
2023/04/14 03:03:11;;;;;;;1.63;1.25;;;5.20;99.90;;;;;;5003626;28;20042;-77
2023/04/14 03:05:40;;;;;;;1.00;0.90;;;5.20;99.90;;;;;;5004203;28;20075;-77
2023/04/14 03:08:07;;;;;;;1.08;0.82;;;5.20;99.90;;;;;;5004755;28;20060;-75
2023/04/14 03:10:33;;;;;;;1.30;1.25;;;5.20;99.90;;;;;;5003229;28;20129;-76
2023/04/14 03:13:01;;;;;;;2.10;1.90;;;5.20;99.90;;;;;;5004219;28;20189;-77
2023/04/14 03:15:28;;;;;;;1.52;1.42;;;5.20;99.90;;;;;;5003145;28;20476;-77
2023/04/14 03:17:56;;;;;;;5.38;1.58;;;5.20;99.90;;;;;;5003643;28;20107;-77
2023/04/14 03:20:22;;;;;;;2.38;1.95;;;5.20;99.90;;;;;;5004948;28;20112;-78
2023/04/14 03:23:05;;;;;;;1.75;1.55;;;5.10;99.90;;;;;;5002561;28;20042;-78
2023/04/14 03:25:36;;;;;;;4.53;1.20;;;5.10;99.90;;;;;;5004035;28;20518;-76
2023/04/14 03:28:05;;;;;;;5.53;1.83;;;5.10;99.90;;;;;;5004638;28;20045;-76
2023/04/14 03:30:32;;;;;;;2.63;1.50;;;5.20;99.90;;;;;;5003839;28;20098;-77
2023/04/14 03:33:05;;;;;;;1.42;1.10;;;5.10;99.90;;;;;;5001976;28;20045;-77
2023/04/14 03:35:31;;;;;;;1.27;1.17;;;5.10;99.90;;;;;;4986708;28;20100;-75
2023/04/14 03:38:01;;;;;;;1.52;1.48;;;5.10;99.90;;;;;;5003552;28;20527;-75
2023/04/14 03:40:30;;;;;;;2.47;1.08;;;5.10;99.90;;;;;;5002779;28;20175;-78
2023/04/14 03:43:01;;;;;;;9.98;2.75;;;5.10;99.90;;;;;;5004439;28;20054;-77
2023/04/14 03:45:27;;;;;;;1.35;1.30;;;5.10;99.90;;;;;;5004214;28;20046;-75
2023/04/14 03:47:59;;;;;;;5.10;1.67;;;5.00;99.90;;;;;;4993532;28;20100;-75
2023/04/14 03:50:31;;;;;;;2.63;1.65;;;5.10;99.90;;;;;;4984661;28;20460;-74
2023/04/14 03:52:59;;;;;;;0.73;0.73;;;5.10;99.90;;;;;;4983124;28;20046;-76
2023/04/14 03:55:28;;;;;;;1.80;1.05;;;5.00;99.90;;;;;;4990066;28;20440;-75
2023/04/14 03:57:57;;;;;;;1.23;1.10;;;5.00;99.90;;;;;;5004254;28;20076;-77
2023/04/14 04:00:25;;;;;;;5.10;2.42;;;5.00;99.90;;;;;;5004121;28;20045;-77
2023/04/14 04:02:52;;;;;;;5.15;1.85;;;5.00;99.90;;;;;;5003338;28;20515;-74
2023/04/14 04:05:20;;;;;;;0.52;0.52;;;5.00;99.90;;;;;;5004049;28;20450;-77
2023/04/14 04:07:46;;;;;;;1.40;1.23;;;5.00;99.90;;;;;;5002598;28;20779;-76
2023/04/14 04:10:13;;;;;;;1.75;1.08;;;5.00;99.90;;;;;;5003674;28;20480;-76
2023/04/14 04:12:42;;;;;;;2.40;1.00;;;4.90;99.90;;;;;;5002340;28;20081;-74
2023/04/14 04:15:08;;;;;;;2.28;1.77;;;4.90;99.90;;;;;;5002416;28;20080;-77
2023/04/14 04:17:34;;;;;;;1.65;1.52;;;4.80;99.90;;;;;;5001126;28;20042;-78
2023/04/14 04:20:05;;;;;;;3.08;1.63;;;4.80;99.90;;;;;;5003937;28;20069;-77
2023/04/14 04:22:34;;;;;;;2.70;1.65;;;4.80;99.90;;;;;;5003624;28;20408;-77
2023/04/14 04:25:00;;;;;;;2.65;1.10;;;4.80;99.90;;;;;;5003478;28;20068;-76
2023/04/14 04:27:27;;;;;;;0.95;0.95;;;4.80;99.90;;;;;;5003720;28;20053;-75
2023/04/14 04:29:53;;;;;;;1.42;1.27;;;4.80;99.90;;;;;;5004056;28;20044;-76
2023/04/14 04:32:19;;;;;;;4.15;2.58;;;4.80;99.90;;;;;;5003832;28;20467;-74
2023/04/14 04:34:46;;;;;;;3.10;2.03;;;4.80;99.90;;;;;;5002622;28;20049;-77
2023/04/14 04:37:13;;;;;;;2.13;1.85;;;4.80;99.90;;;;;;5003187;28;20311;-77
2023/04/14 04:39:38;;;;;;;2.85;1.58;;;4.80;99.90;;;;;;5006574;28;20041;-78
2023/04/14 04:42:06;;;;;;;1.15;1.05;;;4.90;99.90;;;;;;5006816;28;20345;-77
2023/04/14 04:44:34;;;;;;;1.80;1.70;;;4.90;99.90;;;;;;5006332;28;20117;-77
2023/04/14 04:47:00;;;;;;;6.05;1.95;;;4.90;99.90;;;;;;5002842;28;20401;-77
2023/04/14 04:49:26;;;;;;;2.28;1.55;;;4.90;99.90;;;;;;4985972;28;20049;-76
2023/04/14 04:51:52;;;;;;;2.00;1.80;;;4.90;99.90;;;;;;4987915;28;20049;-77
2023/04/14 04:54:18;;;;;;;1.67;1.55;;;4.90;99.90;;;;;;5005601;28;20045;-77
2023/04/14 04:56:45;;;;;;;3.22;1.75;;;4.90;99.90;;;;;;5005418;28;20038;-74
2023/04/14 04:59:10;;;;;;;2.95;2.75;;;4.90;99.90;;;;;;5006692;28;20053;-76
2023/04/14 05:01:36;;;;;;;3.40;1.77;;;4.90;99.90;;;;;;5005396;28;20046;-74
2023/04/14 05:04:02;;;;;;;1.50;1.38;;;4.90;99.90;;;;;;5005851;28;20077;-76
2023/04/14 05:06:27;;;;;;;2.35;1.45;;;4.90;99.90;;;;;;5005998;28;20569;-75
2023/04/14 05:08:54;;;;;;;3.40;1.65;;;4.90;99.90;;;;;;5006643;28;20042;-75
2023/04/14 05:11:20;;;;;;;2.17;1.95;;;4.90;99.90;;;;;;5006181;28;20041;-76
2023/04/14 05:13:46;;;;;;;2.88;2.65;;;4.90;99.90;;;;;;5005517;28;20068;-76
2023/04/14 05:16:15;;;;;;;2.10;1.45;;;5.00;99.90;;;;;;4988373;28;20050;-76
2023/04/14 05:18:42;;;;;;;4.20;1.92;;;5.00;99.90;;;;;;5002961;28;20481;-73
2023/04/14 05:21:11;;;;;;;3.78;1.77;;;4.90;99.90;;;;;;5004835;28;20046;-82
2023/04/14 05:23:38;;;;;;;4.32;3.10;;;4.90;99.90;;;;;;4996301;28;20042;-77
2023/04/14 05:26:05;;;;;;;1.30;1.20;;;4.90;99.90;;;;;;5004059;28;20048;-75
2023/04/14 05:28:31;;;;;;;2.30;1.80;;;4.90;99.90;;;;;;5003678;28;20046;-76
2023/04/14 05:30:57;;;;;;;3.13;1.40;;;4.90;99.90;;;;;;5006154;28;20054;-75
2023/04/14 05:33:22;;;;;;;1.35;1.25;;;4.90;99.90;;;;;;5004611;28;20089;-75
2023/04/14 05:35:51;;;;;;;4.40;2.13;;;5.00;99.90;;;;;;5000322;28;20066;-77
2023/04/14 05:38:17;;;;;;;1.27;0.88;;;5.00;99.90;;;;;;4997024;28;20128;-80
2023/04/14 05:40:44;;;;;;;1.33;1.23;;;5.00;99.90;;;;;;4999722;28;20042;-80
2023/04/14 05:43:09;;;;;;;1.75;1.65;;;5.00;99.90;;;;;;5003707;28;20083;-78
2023/04/14 05:45:35;;;;;;;1.38;1.27;;;5.00;99.90;;;;;;5004443;28;20128;-80
2023/04/14 05:48:01;;;;;;;1.90;1.35;;;5.00;99.90;;;;;;4991394;28;20054;-80
2023/04/14 05:50:26;;;;;;;3.20;1.08;;;5.00;99.90;;;;;;4984708;28;20509;-80
2023/04/14 05:52:52;;;;;;;9.15;2.17;;;5.00;99.90;;;;;;4972547;28;20179;-79
2023/04/14 05:55:18;;;;;;;4.40;1.75;;;5.00;99.90;;;;;;4998844;28;20077;-80
2023/04/14 05:57:44;;;;;;;1.45;1.35;;;5.10;99.90;;;;;;5003885;28;20124;-77
2023/04/14 06:00:11;;;;;;;2.55;1.38;;;5.00;99.90;;;;;;5003953;28;20125;-80
2023/04/14 06:02:37;;;;;;;1.95;1.67;;;5.10;99.90;;;;;;4998059;28;20045;-79
2023/04/14 06:05:05;;;;;;;4.63;2.30;;;5.10;99.90;;;;;;5004533;28;20380;-79
2023/04/14 06:07:31;;;;;;;3.55;1.90;;;5.10;99.90;;;;;;5002781;28;20046;-78
2023/04/14 06:09:56;;;;;;;3.60;2.00;;;5.10;99.90;;;;;;5004236;28;20115;-78
2023/04/14 06:12:22;;;;;;;1.65;1.42;;;5.10;99.90;;;;;;5005049;28;20061;-79
2023/04/14 06:14:47;;;;;;;2.95;2.65;;;5.10;99.90;;;;;;5003864;28;20049;-76
2023/04/14 06:17:13;;;;;;;2.45;2.25;;;5.20;99.90;;;;;;5003387;28;20037;-78
2023/04/14 06:19:38;;;;;;;2.33;1.25;;;5.20;99.90;;;;;;5002133;28;20041;-77
2023/04/14 06:22:04;;;;;;;1.52;1.42;;;5.20;99.90;;;;;;5003331;28;20041;-77
2023/04/14 06:24:33;;;;;;;4.78;2.53;;;5.20;99.90;;;;;;5002534;28;20049;-77
2023/04/14 06:26:59;;;;;;;1.70;1.60;;;5.20;99.90;;;;;;5002240;28;20061;-79
2023/04/14 06:29:25;;;;;;;1.67;1.58;;;5.30;99.90;;;;;;4984376;28;20073;-77
2023/04/14 06:31:51;;;;;;;1.65;1.40;;;5.30;99.90;;;;;;4988215;28;20038;-78
2023/04/14 06:34:17;;;;;;;2.00;1.90;;;5.30;99.90;;;;;;5003319;28;20461;-76
2023/04/14 06:36:42;;;;;;;5.50;2.80;;;5.30;99.90;;;;;;5003826;28;20057;-78
2023/04/14 06:39:08;;;;;;;3.45;2.00;;;5.30;99.90;;;;;;5002519;28;20045;-79
2023/04/14 06:41:34;;;;;;;3.15;2.45;;;5.30;99.90;;;;;;5003030;28;20042;-78
2023/04/14 06:43:59;;;;;;;3.25;2.08;;;5.40;99.90;;;;;;5002619;28;20411;-78
2023/04/14 06:46:25;;;;;;;2.50;1.45;;;5.40;99.90;;;;;;5003526;28;20181;-78
2023/04/14 06:48:51;;;;;;;6.53;3.33;;;5.40;99.90;;;;;;5001273;28;20041;-78
2023/04/14 06:51:17;;;;;;;2.97;1.83;;;5.40;99.90;;;;;;5003536;28;20045;-78
2023/04/14 06:53:42;;;;;;;2.25;2.05;;;5.50;99.90;;;;;;5002183;28;20049;-76
2023/04/14 06:56:08;;;;;;;7.03;2.22;;;5.40;99.90;;;;;;5003330;28;20027;-79
2023/04/14 06:58:34;;;;;;;1.35;1.25;;;5.50;99.90;;;;;;5001938;28;20053;-79
2023/04/14 07:01:01;;;;;;;2.33;1.25;;;5.50;99.90;;;;;;5003220;28;20052;-75
2023/04/14 07:03:29;;;;;;;2.33;2.15;;;5.50;99.90;;;;;;5000809;28;20125;-79
2023/04/14 07:06:02;;;;;;;3.53;2.67;;;5.60;99.90;;;;;;5003293;28;20046;-76
2023/04/14 07:08:31;;;;;;;3.30;1.05;;;5.60;99.90;;;;;;5003066;28;20034;-79
2023/04/14 07:11:07;;;;;;;3.53;2.40;;;5.60;99.90;;;;;;5003447;28;20042;-80
2023/04/14 07:13:34;;;;;;;3.83;2.22;;;5.60;99.90;;;;;;4984979;28;20053;-78
2023/04/14 07:16:03;;;;;;;3.97;2.20;;;5.70;99.90;;;;;;5002079;28;20049;-78
2023/04/14 07:18:30;;;;;;;2.05;1.95;;;5.70;99.90;;;;;;5001540;28;20057;-77
2023/04/14 07:20:57;;;;;;;1.48;1.33;;;5.80;99.90;;;;;;5002152;28;20346;-77
2023/04/14 07:23:22;;;;;;;2.92;2.63;;;5.80;99.90;;;;;;5002271;28;20528;-80
2023/04/14 07:25:53;;;;;;;1.95;1.60;;;5.80;99.90;;;;;;4985071;28;20135;-78
2023/04/14 07:28:20;;;;;;;4.20;2.47;;;5.80;99.90;;;;;;4985394;28;20046;-76
2023/04/14 07:30:47;;;;;;;3.70;3.38;;;5.90;99.90;;;;;;4999275;28;20050;-76
2023/04/14 07:33:13;;;;;;;2.63;2.00;;;5.90;99.90;;;;;;5002331;28;20057;-78
2023/04/14 07:35:38;;;;;;;3.30;2.03;;;5.90;99.90;;;;;;5002782;28;20048;-77
2023/04/14 07:38:04;;;;;;;2.85;1.88;;;6.00;99.90;;;;;;5001410;28;20046;-78
2023/04/14 07:40:30;;;;;;;4.35;2.13;;;6.00;99.90;;;;;;5002378;28;20401;-80
2023/04/14 07:42:56;;;;;;;2.55;2.35;;;6.10;99.90;;;;;;5001121;28;20076;-76
2023/04/14 07:45:22;;;;;;;5.25;3.92;;;6.10;99.90;;;;;;5001086;28;20093;-79
2023/04/14 07:47:48;;;;;;;3.25;3.00;;;6.20;99.90;;;;;;4997510;28;20548;-77
2023/04/14 07:50:13;;;;;;;4.15;2.75;;;6.20;99.90;;;;;;5003195;28;20037;-80
2023/04/14 07:52:39;;;;;;;2.97;2.20;;;6.20;99.90;;;;;;5000920;28;20046;-78
2023/04/14 07:55:05;;;;;;;2.83;2.40;;;6.20;99.90;;;;;;5001652;28;20488;-81
2023/04/14 07:57:33;;;;;;;3.95;2.42;;;6.30;99.90;;;;;;5000789;28;20049;-82
2023/04/14 07:59:59;;;;;;;2.72;1.83;;;6.30;99.90;;;;;;5000989;28;20045;-82
2023/04/14 08:02:24;;;;;;;3.88;3.05;;;6.30;99.90;;;;;;5000506;28;20038;-76
2023/04/14 08:04:50;;;;;;;2.58;2.30;;;6.40;99.90;;;;;;5002892;28;20050;-82
2023/04/14 08:07:16;;;;;;;2.20;2.03;;;6.40;99.90;;;;;;5002304;28;20113;-80
2023/04/14 08:09:42;;;;;;;2.67;2.47;;;6.50;99.90;;;;;;5002397;28;20042;-78
2023/04/14 08:12:10;;;;;;;8.77;3.15;;;6.50;99.90;;;;;;5002812;28;20070;-79
2023/04/14 08:14:35;;;;;;;5.43;2.17;;;6.60;99.90;;;;;;5005980;28;20053;-80
2023/04/14 08:17:01;;;;;;;1.92;1.83;;;6.60;99.90;;;;;;5003712;28;20410;-77
2023/04/14 08:19:27;;;;;;;2.70;2.38;;;6.60;99.90;;;;;;5006168;28;20546;-82
2023/04/14 08:21:53;;;;;;;4.70;2.50;;;6.70;99.90;;;;;;5006678;28;20559;-80
2023/04/14 08:24:19;;;;;;;5.78;2.25;;;6.70;99.90;;;;;;5004627;28;20499;-82
2023/04/14 08:26:44;;;;;;;3.13;1.85;;;6.80;99.90;;;;;;5005710;28;20074;-81
2023/04/14 08:29:10;;;;;;;2.50;1.95;;;6.80;99.90;;;;;;5004550;28;20132;-78
2023/04/14 08:31:35;;;;;;;5.47;2.83;;;6.90;99.90;;;;;;5005661;28;20046;-79
2023/04/14 08:34:01;;;;;;;7.97;3.15;;;6.90;99.90;;;;;;5003819;28;20107;-79
2023/04/14 08:36:26;;;;;;;4.93;3.13;;;7.00;99.90;;;;;;5005695;28;20042;-81
2023/04/14 08:38:52;;;;;;;4.93;2.65;;;7.00;99.90;;;;;;5005177;28;20067;-79
2023/04/14 08:41:19;;;;;;;1.98;1.52;;;7.10;99.90;;;;;;5005867;28;20057;-82
2023/04/14 08:43:45;;;;;;;1.98;1.38;;;7.10;99.90;;;;;;5004151;28;20045;-82
2023/04/14 08:46:13;;;;;;;2.40;1.58;;;7.20;99.90;;;;;;5004096;28;20046;-80
2023/04/14 08:48:39;;;;;;;1.77;1.52;;;7.30;99.90;;;;;;5004370;28;20037;-79
2023/04/14 08:51:14;;;;;;;2.25;2.15;;;7.30;99.90;;;;;;5004324;28;20038;-78
2023/04/14 08:53:44;;;;;;;6.90;2.58;;;7.30;99.90;;;;;;5005429;28;20034;-81
2023/04/14 08:56:12;;;;;;;2.50;2.17;;;7.30;99.90;;;;;;5004001;28;20046;-76
2023/04/14 08:58:38;;;;;;;3.85;2.00;;;7.40;99.90;;;;;;5003538;28;20042;-81
2023/04/14 09:01:04;;;;;;;5.47;3.53;;;7.40;99.90;;;;;;5002644;28;20136;-82
2023/04/14 09:03:30;;;;;;;3.78;1.98;;;7.50;99.90;;;;;;5002976;28;20528;-80
2023/04/14 09:05:56;;;;;;;5.80;2.75;;;7.50;99.90;;;;;;5005791;28;20111;-82
2023/04/14 09:08:22;;;;;;;2.80;2.13;;;7.50;99.90;;;;;;5005587;28;20129;-79
2023/04/14 09:10:49;;;;;;;2.75;2.05;;;7.60;99.90;;;;;;5003826;28;20518;-80
2023/04/14 09:13:16;;;;;;;1.65;1.55;;;7.60;99.90;;;;;;5005349;28;20087;-80
2023/04/14 09:15:42;;;;;;;2.75;1.88;;;7.60;99.90;;;;;;4986000;28;20060;-77
2023/04/14 09:18:09;;;;;;;5.22;2.72;;;7.70;99.90;;;;;;5004087;28;20492;-80
2023/04/14 09:20:36;;;;;;;9.68;2.47;;;7.80;99.90;;;;;;5004001;28;20053;-80
2023/04/14 09:23:03;;;;;;;3.33;3.03;;;7.80;99.90;;;;;;5003799;28;20508;-81
2023/04/14 09:25:29;;;;;;;3.67;1.80;;;7.90;99.90;;;;;;5002831;28;20053;-81
2023/04/14 09:27:55;;;;;;;4.18;2.90;;;7.90;99.90;;;;;;4987402;28;20038;-76
2023/04/14 09:30:20;;;;;;;7.40;2.38;;;7.90;99.90;;;;;;5005198;28;20476;-81
2023/04/14 09:32:52;;;;;;;9.10;3.53;;;8.00;99.90;;;;;;5003507;28;20042;-80
2023/04/14 09:35:17;;;;;;;5.30;4.55;;;8.00;99.90;;;;;;5004034;28;20053;-82
2023/04/14 09:37:45;;;;;;;8.15;4.07;;;8.10;99.90;;;;;;5002912;28;20218;-81
2023/04/14 09:40:27;;;;;;;5.32;4.00;;;8.10;99.90;;;;;;5004025;28;20083;-80
2023/04/14 09:42:55;;;;;;;4.50;2.88;;;8.20;99.90;;;;;;5003975;28;20073;-79
2023/04/14 09:45:21;;;;;;;7.57;4.75;;;8.20;99.90;;;;;;5004474;28;20054;-80
2023/04/14 09:47:47;;;;;;;3.10;1.33;;;8.30;99.90;;;;;;4994704;28;20057;-79
2023/04/14 09:50:13;;;;;;;3.30;2.20;;;8.30;99.90;;;;;;4984165;28;20532;-80
2023/04/14 09:52:47;;;;;;;1.60;1.50;;;8.30;99.90;;;;;;4983243;28;20130;-81
2023/04/14 09:55:14;;;;;;;6.80;1.90;;;8.30;99.90;;;;;;4989813;28;20413;-80
2023/04/14 09:57:41;;;;;;;0.50;0.50;;;8.40;99.90;;;;;;5003261;28;20476;-80
2023/04/14 10:00:30;;;;;;;3.40;1.05;;;8.40;99.90;;;;;;5004199;28;20129;-77
2023/04/14 10:03:00;;;;;;;1.15;1.05;;;8.40;99.90;;;;;;5003511;28;20046;-77
2023/04/14 10:05:30;;;;;;;1.17;0.95;;;8.50;99.90;;;;;;5003242;28;20061;-77
2023/04/14 10:08:01;;;;;;;0.52;0.52;;;8.50;99.90;;;;;;5004276;28;20053;-82
2023/04/14 10:10:26;;;;;;;1.90;1.25;;;8.50;99.90;;;;;;5004049;28;20782;-81
2023/04/14 10:12:53;;;;;;;3.55;1.40;;;8.50;99.90;;;;;;5002767;28;20057;-81
2023/04/14 10:15:19;;;;;;;2.17;0.68;;;8.60;99.90;;;;;;5003916;28;20046;-82
2023/04/14 10:17:44;;;;;;;0.57;0.30;;;8.60;99.90;;;;;;5001340;28;20045;-81
2023/04/14 10:20:10;;;;;;;1.80;0.50;;;8.60;99.90;;;;;;5003790;28;20046;-80
2023/04/14 10:22:36;;;;;;;0.45;0.45;;;8.70;99.90;;;;;;5003948;28;20046;-80
2023/04/14 10:25:03;;;;;;;0.55;0.50;;;8.70;99.90;;;;;;5002681;28;20049;-78
2023/04/14 10:27:30;;;;;;;1.33;0.70;;;8.80;99.90;;;;;;5003510;28;20057;-78
2023/04/14 10:29:57;;;;;;;3.83;1.30;;;8.80;99.90;;;;;;5002651;28;20120;-81
2023/04/14 10:32:26;;;;;;;0.40;0.40;;;8.80;99.90;;;;;;5001878;28;20034;-81
2023/04/14 10:35:11;;;;;;;1.45;0.60;;;8.90;99.90;;;;;;5003840;28;20500;-82
2023/04/14 10:37:36;;;;;;;1.17;0.77;;;8.90;99.90;;;;;;4986183;28;20392;-82
2023/04/14 10:40:05;;;;;;;2.30;0.73;;;8.90;99.90;;;;;;4985726;28;20046;-81
2023/04/14 10:42:55;;;;;;;2.30;0.50;;;8.90;99.90;;;;;;5003449;28;20038;-82
2023/04/14 10:45:21;;;;;;;2.28;1.33;;;8.90;99.90;;;;;;4992672;28;20350;-76
2023/04/14 10:47:48;;;;;;;1.95;0.90;;;8.90;99.90;;;;;;4992323;28;20952;-80
2023/04/14 10:50:21;;;;;;;2.33;0.75;;;9.00;99.90;;;;;;4984174;28;20038;-76
2023/04/14 10:52:54;;;;;;;2.42;1.08;;;9.00;99.90;;;;;;4982422;28;20400;-79
2023/04/14 10:55:25;;;;;;;1.48;1.38;;;9.00;99.90;;;;;;4997640;28;20124;-82
2023/04/14 10:57:53;;;;;;;1.08;0.10;;;9.10;99.90;;;;;;5002756;28;20377;-81
2023/04/14 11:00:26;;;;;;;1.80;0.52;;;9.10;99.90;;;;;;5001631;28;20045;-81
2023/04/14 11:03:15;;;;;;;1.42;0.47;;;9.20;99.90;;;;;;5002709;28;20484;-80
2023/04/14 11:05:47;;;;;;;2.17;1.08;;;9.20;99.90;;;;;;5001370;28;20447;-79
2023/04/14 11:08:26;;;;;;;0.20;0.20;;;9.20;99.90;;;;;;5003253;28;20041;-81
2023/04/14 11:11:03;;;;;;;1.00;0.73;;;9.20;99.90;;;;;;4982629;28;20034;-80
2023/04/14 11:13:30;;;;;;;0.60;0.40;;;9.30;99.90;;;;;;4983043;28;20059;-82
2023/04/14 11:16:00;;;;;;;0.70;0.30;;;9.30;99.90;;;;;;5001111;28;20108;-83
2023/04/14 11:18:26;;;;;;;1.40;1.27;;;9.30;99.90;;;;;;5002422;28;20125;-82
2023/04/14 11:20:52;;;;;;;3.25;0.73;;;9.40;99.90;;;;;;5003436;28;20132;-81
2023/04/14 11:23:26;;;;;;;0.82;0.77;;;9.30;99.90;;;;;;5002520;28;20556;-82
2023/04/14 11:25:52;;;;;;;2.05;0.85;;;9.30;99.90;;;;;;5003458;28;20041;-80
2023/04/14 11:28:31;;;;;;;0.77;0.30;;;9.40;99.90;;;;;;5001567;28;20084;-80
2023/04/14 11:30:58;;;;;;;0.60;0.60;;;9.40;99.90;;;;;;5002796;28;20053;-80
2023/04/14 11:33:36;;;;;;;2.15;0.90;;;9.40;99.90;;;;;;5001228;28;20037;-82
2023/04/14 11:36:02;;;;;;;0.65;0.40;;;9.50;99.90;;;;;;5003107;28;20042;-76
2023/04/14 11:38:29;;;;;;;1.38;1.05;;;9.50;99.90;;;;;;5002190;28;20100;-80
2023/04/14 11:40:55;;;;;;;0.93;0.93;;;9.60;99.90;;;;;;5003773;28;20116;-77
2023/04/14 11:43:21;;;;;;;3.25;1.10;;;9.70;99.90;;;;;;5002962;28;20558;-85
2023/04/14 11:45:47;;;;;;;2.38;0.82;;;9.70;99.90;;;;;;4984917;28;20046;-83
2023/04/14 11:48:18;;;;;;;0.65;0.47;;;9.70;99.90;;;;;;5002377;28;20120;-82
2023/04/14 11:50:46;;;;;;;0.90;0.90;;;9.70;99.90;;;;;;4988636;28;20050;-77
2023/04/14 11:53:14;;;;;;;0.73;0.40;;;9.80;99.90;;;;;;5006479;28;20030;-79
2023/04/14 11:55:47;;;;;;;1.00;0.52;;;9.80;99.90;;;;;;5006505;28;20037;-81
2023/04/14 11:58:14;;;;;;;2.60;0.65;;;9.80;99.90;;;;;;5007165;28;20077;-79
2023/04/14 12:00:41;;;;;;;1.30;0.93;;;9.70;99.90;;;;;;5005950;28;20091;-79
2023/04/14 12:03:07;;;;;;;0.50;0.50;;;9.70;99.90;;;;;;5004672;28;20049;-81
2023/04/14 12:05:34;;;;;;;3.10;0.93;;;9.80;99.90;;;;;;5006181;28;20100;-80
2023/04/14 12:08:06;;;;;;;3.67;0.98;;;9.80;99.90;;;;;;5006773;28;20079;-81
2023/04/14 12:10:32;;;;;;;0.50;0.43;;;9.80;99.90;;;;;;5005703;28;20045;-80
2023/04/14 12:13:08;;;;;;;2.35;1.00;;;9.80;99.90;;;;;;5006624;28;20056;-81
2023/04/14 12:15:36;;;;;;;1.25;0.35;;;9.80;99.90;;;;;;5006187;28;20033;-80
2023/04/14 12:18:04;;;;;;;0.50;0.50;;;9.80;99.90;;;;;;5005312;28;20472;-80
2023/04/14 12:21:00;;;;;;;1.75;0.40;;;9.80;99.90;;;;;;5006067;28;20046;-79
2023/04/14 12:23:25;;;;;;;0.60;0.55;;;9.80;99.90;;;;;;5005002;28;20089;-77
2023/04/14 12:25:51;;;;;;;3.42;0.70;;;9.80;99.90;;;;;;4996508;28;20556;-82
2023/04/14 12:28:28;;;;;;;3.17;2.15;;;9.80;99.90;;;;;;5005720;28;20065;-81
2023/04/14 12:30:59;;;;;;;0.90;0.47;;;9.80;99.90;;;;;;5005147;28;20350;-79
2023/04/14 12:33:26;;;;;;;1.88;0.60;;;9.80;99.90;;;;;;4985793;28;20445;-78
2023/04/14 12:35:53;;;;;;;0.43;0.35;;;9.80;99.90;;;;;;5002811;28;20030;-80
2023/04/14 12:38:25;;;;;;;0.50;0.50;;;9.80;99.90;;;;;;4989380;28;20113;-81
2023/04/14 12:40:51;;;;;;;1.25;0.93;;;9.90;99.90;;;;;;4994991;28;20093;-86
2023/04/14 12:43:33;;;;;;;2.38;0.80;;;9.90;99.90;;;;;;4988017;28;20503;-80
2023/04/14 12:45:59;;;;;;;3.40;0.88;;;9.90;99.90;;;;;;4976653;28;20037;-85
2023/04/14 12:48:47;;;;;;;1.85;0.93;;;9.90;99.90;;;;;;4995375;28;20053;-79
2023/04/14 12:51:15;;;;;;;2.40;0.98;;;9.90;99.90;;;;;;5000407;28;20433;-85
2023/04/14 12:53:46;;;;;;;2.38;0.75;;;9.90;99.90;;;;;;5000197;28;20149;-94
2023/04/14 12:56:16;;;;;;;0.55;0.38;;;9.90;99.90;;;;;;5007037;28;20492;-86
2023/04/14 12:58:47;;;;;;;3.30;0.80;;;9.90;99.90;;;;;;5003713;28;20254;-78
2023/04/14 13:01:14;;;;;;;1.25;0.47;;;9.90;99.90;;;;;;5003681;28;20038;-85
2023/04/14 13:03:50;;;;;;;1.60;0.70;;;9.90;99.90;;;;;;5005809;28;20117;-86